sensor_id;sensor_type;location;lat;lon;timestamp;temperature;humidity
14471;DHT22;7321;50.802;4.336;2023-08-08T00:02:15;15.80;99.90
14471;DHT22;7321;50.802;4.336;2023-08-08T00:04:41;15.80;99.90
14471;DHT22;7321;50.802;4.336;2023-08-08T00:07:07;15.70;99.90
14471;DHT22;7321;50.802;4.336;2023-08-08T00:09:32;15.80;99.90
14471;DHT22;7321;50.802;4.336;2023-08-08T00:11:58;15.80;99.90
14471;DHT22;7321;50.802;4.336;2023-08-08T00:14:24;15.90;99.90
14471;DHT22;7321;50.802;4.336;2023-08-08T00:16:50;15.80;99.90
14471;DHT22;7321;50.802;4.336;2023-08-08T00:19:16;15.50;99.90
14471;DHT22;7321;50.802;4.336;2023-08-08T00:21:42;15.40;99.90
14471;DHT22;7321;50.802;4.336;2023-08-08T00:24:08;15.40;99.90
14471;DHT22;7321;50.802;4.336;2023-08-08T00:26:33;15.40;99.90
14471;DHT22;7321;50.802;4.336;2023-08-08T00:28:59;15.20;99.90
14471;DHT22;7321;50.802;4.336;2023-08-08T00:31:25;15.20;99.90
14471;DHT22;7321;50.802;4.336;2023-08-08T00:33:51;15.30;99.90
14471;DHT22;7321;50.802;4.336;2023-08-08T00:36:17;15.30;99.90
14471;DHT22;7321;50.802;4.336;2023-08-08T00:38:42;15.20;99.90
14471;DHT22;7321;50.802;4.336;2023-08-08T00:41:08;15.10;99.90
14471;DHT22;7321;50.802;4.336;2023-08-08T00:43:34;15.00;99.90
14471;DHT22;7321;50.802;4.336;2023-08-08T00:46:00;14.90;99.90
14471;DHT22;7321;50.802;4.336;2023-08-08T00:48:26;14.90;99.90
14471;DHT22;7321;50.802;4.336;2023-08-08T00:50:52;14.80;99.90
14471;DHT22;7321;50.802;4.336;2023-08-08T00:53:18;14.70;99.90
14471;DHT22;7321;50.802;4.336;2023-08-08T00:55:46;14.70;99.90
14471;DHT22;7321;50.802;4.336;2023-08-08T00:58:12;14.80;99.90
14471;DHT22;7321;50.802;4.336;2023-08-08T01:00:38;14.90;99.90
14471;DHT22;7321;50.802;4.336;2023-08-08T01:03:05;15.10;99.90
14471;DHT22;7321;50.802;4.336;2023-08-08T01:05:35;14.90;99.90
14471;DHT22;7321;50.802;4.336;2023-08-08T01:08:04;15.10;99.90
14471;DHT22;7321;50.802;4.336;2023-08-08T01:10:37;15.10;99.90
14471;DHT22;7321;50.802;4.336;2023-08-08T01:13:10;15.10;99.90
14471;DHT22;7321;50.802;4.336;2023-08-08T01:15:36;15.10;99.90
14471;DHT22;7321;50.802;4.336;2023-08-08T01:18:07;15.00;99.90
14471;DHT22;7321;50.802;4.336;2023-08-08T01:20:34;14.70;99.90
14471;DHT22;7321;50.802;4.336;2023-08-08T01:25:40;14.80;99.90
14471;DHT22;7321;50.802;4.336;2023-08-08T01:28:07;15.00;99.90
14471;DHT22;7321;50.802;4.336;2023-08-08T01:30:33;15.10;99.90
14471;DHT22;7321;50.802;4.336;2023-08-08T01:32:59;14.90;99.90
14471;DHT22;7321;50.802;4.336;2023-08-08T01:35:29;15.00;99.90
14471;DHT22;7321;50.802;4.336;2023-08-08T01:38:02;14.90;99.90
14471;DHT22;7321;50.802;4.336;2023-08-08T01:40:31;14.80;99.90
14471;DHT22;7321;50.802;4.336;2023-08-08T01:42:58;14.90;99.90
14471;DHT22;7321;50.802;4.336;2023-08-08T01:45:24;14.80;99.90
14471;DHT22;7321;50.802;4.336;2023-08-08T01:47:53;14.80;99.90
14471;DHT22;7321;50.802;4.336;2023-08-08T01:50:20;14.90;99.90
14471;DHT22;7321;50.802;4.336;2023-08-08T01:52:47;15.00;99.90
14471;DHT22;7321;50.802;4.336;2023-08-08T01:55:13;15.00;99.90
14471;DHT22;7321;50.802;4.336;2023-08-08T01:57:38;14.80;99.90
14471;DHT22;7321;50.802;4.336;2023-08-08T02:00:06;14.80;99.90
14471;DHT22;7321;50.802;4.336;2023-08-08T02:02:32;14.80;99.90
14471;DHT22;7321;50.802;4.336;2023-08-08T02:04:58;14.80;99.90
14471;DHT22;7321;50.802;4.336;2023-08-08T02:07:24;14.70;99.90
14471;DHT22;7321;50.802;4.336;2023-08-08T02:09:49;14.80;99.90
14471;DHT22;7321;50.802;4.336;2023-08-08T02:12:16;14.70;99.90
14471;DHT22;7321;50.802;4.336;2023-08-08T02:14:42;14.70;99.90
14471;DHT22;7321;50.802;4.336;2023-08-08T02:17:08;14.70;99.90
14471;DHT22;7321;50.802;4.336;2023-08-08T02:19:33;14.70;99.90
14471;DHT22;7321;50.802;4.336;2023-08-08T02:21:59;14.80;99.90
14471;DHT22;7321;50.802;4.336;2023-08-08T02:24:25;14.80;99.90
14471;DHT22;7321;50.802;4.336;2023-08-08T02:26:51;14.90;99.90
14471;DHT22;7321;50.802;4.336;2023-08-08T02:29:17;14.80;99.90
14471;DHT22;7321;50.802;4.336;2023-08-08T02:31:43;14.80;99.90
14471;DHT22;7321;50.802;4.336;2023-08-08T02:34:09;14.80;99.90
14471;DHT22;7321;50.802;4.336;2023-08-08T02:36:35;14.80;99.90
14471;DHT22;7321;50.802;4.336;2023-08-08T02:39:00;14.90;99.90
14471;DHT22;7321;50.802;4.336;2023-08-08T02:41:26;14.80;99.90
14471;DHT22;7321;50.802;4.336;2023-08-08T02:43:52;14.70;99.90
14471;DHT22;7321;50.802;4.336;2023-08-08T02:46:18;14.70;99.90
14471;DHT22;7321;50.802;4.336;2023-08-08T02:48:44;14.70;99.90
14471;DHT22;7321;50.802;4.336;2023-08-08T02:51:10;14.70;99.90
14471;DHT22;7321;50.802;4.336;2023-08-08T02:53:35;14.50;99.90
14471;DHT22;7321;50.802;4.336;2023-08-08T02:56:01;14.50;99.90
14471;DHT22;7321;50.802;4.336;2023-08-08T02:58:27;14.60;99.90
14471;DHT22;7321;50.802;4.336;2023-08-08T03:00:53;14.60;99.90
14471;DHT22;7321;50.802;4.336;2023-08-08T03:03:19;14.60;99.90
14471;DHT22;7321;50.802;4.336;2023-08-08T03:05:45;14.60;99.90
14471;DHT22;7321;50.802;4.336;2023-08-08T03:08:11;14.60;99.90
14471;DHT22;7321;50.802;4.336;2023-08-08T03:10:37;14.60;99.90
14471;DHT22;7321;50.802;4.336;2023-08-08T03:13:03;14.60;99.90
14471;DHT22;7321;50.802;4.336;2023-08-08T03:15:29;14.50;99.90
14471;DHT22;7321;50.802;4.336;2023-08-08T03:17:55;14.50;99.90
14471;DHT22;7321;50.802;4.336;2023-08-08T03:20:21;14.40;99.90
14471;DHT22;7321;50.802;4.336;2023-08-08T03:22:47;14.40;99.90
14471;DHT22;7321;50.802;4.336;2023-08-08T03:25:13;14.30;99.90
14471;DHT22;7321;50.802;4.336;2023-08-08T03:27:38;14.20;99.90
14471;DHT22;7321;50.802;4.336;2023-08-08T03:30:05;14.10;99.90
14471;DHT22;7321;50.802;4.336;2023-08-08T03:32:31;14.30;99.90
14471;DHT22;7321;50.802;4.336;2023-08-08T03:34:56;14.20;99.90
14471;DHT22;7321;50.802;4.336;2023-08-08T03:37:22;14.40;99.90
14471;DHT22;7321;50.802;4.336;2023-08-08T03:39:48;14.50;99.90
14471;DHT22;7321;50.802;4.336;2023-08-08T03:42:14;14.60;99.90
14471;DHT22;7321;50.802;4.336;2023-08-08T03:44:40;14.60;99.90
14471;DHT22;7321;50.802;4.336;2023-08-08T03:47:06;14.40;99.90
14471;DHT22;7321;50.802;4.336;2023-08-08T03:49:33;14.40;99.90
14471;DHT22;7321;50.802;4.336;2023-08-08T03:51:59;14.20;99.90
14471;DHT22;7321;50.802;4.336;2023-08-08T03:54:25;14.10;99.90
14471;DHT22;7321;50.802;4.336;2023-08-08T03:56:50;14.00;99.90
14471;DHT22;7321;50.802;4.336;2023-08-08T03:59:16;14.20;99.90
14471;DHT22;7321;50.802;4.336;2023-08-08T04:01:42;14.30;99.90
14471;DHT22;7321;50.802;4.336;2023-08-08T04:04:08;14.30;99.90
14471;DHT22;7321;50.802;4.336;2023-08-08T04:06:33;14.50;99.90
14471;DHT22;7321;50.802;4.336;2023-08-08T04:08:59;14.50;99.90
14471;DHT22;7321;50.802;4.336;2023-08-08T04:11:26;14.50;99.90
14471;DHT22;7321;50.802;4.336;2023-08-08T04:13:52;14.20;99.90
14471;DHT22;7321;50.802;4.336;2023-08-08T04:16:18;14.20;99.90
14471;DHT22;7321;50.802;4.336;2023-08-08T04:18:43;14.20;99.90
14471;DHT22;7321;50.802;4.336;2023-08-08T04:21:09;14.20;99.90
14471;DHT22;7321;50.802;4.336;2023-08-08T04:23:35;14.40;99.90
14471;DHT22;7321;50.802;4.336;2023-08-08T04:26:01;14.50;99.90
14471;DHT22;7321;50.802;4.336;2023-08-08T04:28:26;14.50;99.90
14471;DHT22;7321;50.802;4.336;2023-08-08T04:30:52;14.50;99.90
14471;DHT22;7321;50.802;4.336;2023-08-08T04:33:18;14.40;99.90
14471;DHT22;7321;50.802;4.336;2023-08-08T04:35:44;14.30;99.90
14471;DHT22;7321;50.802;4.336;2023-08-08T04:38:10;14.40;99.90
14471;DHT22;7321;50.802;4.336;2023-08-08T04:40:35;14.40;99.90
14471;DHT22;7321;50.802;4.336;2023-08-08T04:43:01;14.50;99.90
14471;DHT22;7321;50.802;4.336;2023-08-08T04:45:27;14.50;99.90
14471;DHT22;7321;50.802;4.336;2023-08-08T04:47:54;14.40;99.90
14471;DHT22;7321;50.802;4.336;2023-08-08T04:50:20;14.40;99.90
14471;DHT22;7321;50.802;4.336;2023-08-08T04:52:46;14.30;99.90
14471;DHT22;7321;50.802;4.336;2023-08-08T04:55:15;14.20;99.90
14471;DHT22;7321;50.802;4.336;2023-08-08T04:57:41;14.30;99.90
14471;DHT22;7321;50.802;4.336;2023-08-08T05:00:07;14.40;99.90
14471;DHT22;7321;50.802;4.336;2023-08-08T05:02:34;14.30;99.90
14471;DHT22;7321;50.802;4.336;2023-08-08T05:05:00;14.50;99.90
14471;DHT22;7321;50.802;4.336;2023-08-08T05:07:27;14.40;99.90
14471;DHT22;7321;50.802;4.336;2023-08-08T05:09:53;14.40;99.90
14471;DHT22;7321;50.802;4.336;2023-08-08T05:12:18;14.40;99.90
14471;DHT22;7321;50.802;4.336;2023-08-08T05:14:44;14.40;99.90
14471;DHT22;7321;50.802;4.336;2023-08-08T05:17:10;14.30;99.90
14471;DHT22;7321;50.802;4.336;2023-08-08T05:19:36;14.50;99.90
14471;DHT22;7321;50.802;4.336;2023-08-08T05:22:03;14.60;99.90
14471;DHT22;7321;50.802;4.336;2023-08-08T05:24:28;14.50;99.90
14471;DHT22;7321;50.802;4.336;2023-08-08T05:26:54;14.70;99.90
14471;DHT22;7321;50.802;4.336;2023-08-08T05:29:20;14.60;99.90
14471;DHT22;7321;50.802;4.336;2023-08-08T05:31:46;14.70;99.90
14471;DHT22;7321;50.802;4.336;2023-08-08T05:34:13;14.90;99.90
14471;DHT22;7321;50.802;4.336;2023-08-08T05:36:39;15.00;99.90
14471;DHT22;7321;50.802;4.336;2023-08-08T05:39:05;15.00;99.90
14471;DHT22;7321;50.802;4.336;2023-08-08T05:41:33;15.10;99.90
14471;DHT22;7321;50.802;4.336;2023-08-08T05:43:59;15.20;99.90
14471;DHT22;7321;50.802;4.336;2023-08-08T05:46:24;15.20;99.90
14471;DHT22;7321;50.802;4.336;2023-08-08T05:48:50;15.20;99.90
14471;DHT22;7321;50.802;4.336;2023-08-08T05:51:16;15.20;99.90
14471;DHT22;7321;50.802;4.336;2023-08-08T05:53:42;15.30;99.90
14471;DHT22;7321;50.802;4.336;2023-08-08T05:56:08;15.30;99.90
14471;DHT22;7321;50.802;4.336;2023-08-08T05:58:34;15.20;99.90
14471;DHT22;7321;50.802;4.336;2023-08-08T06:01:02;15.40;99.90
14471;DHT22;7321;50.802;4.336;2023-08-08T06:03:31;15.20;99.90
14471;DHT22;7321;50.802;4.336;2023-08-08T06:05:57;15.20;99.90
14471;DHT22;7321;50.802;4.336;2023-08-08T06:08:23;15.30;99.90
14471;DHT22;7321;50.802;4.336;2023-08-08T06:10:49;15.30;99.90
14471;DHT22;7321;50.802;4.336;2023-08-08T06:13:15;15.10;99.90
14471;DHT22;7321;50.802;4.336;2023-08-08T06:15:41;15.30;99.90
14471;DHT22;7321;50.802;4.336;2023-08-08T06:18:07;15.40;99.90
14471;DHT22;7321;50.802;4.336;2023-08-08T06:20:32;15.60;99.90
14471;DHT22;7321;50.802;4.336;2023-08-08T06:22:58;15.70;99.90
14471;DHT22;7321;50.802;4.336;2023-08-08T06:25:27;15.70;99.90
14471;DHT22;7321;50.802;4.336;2023-08-08T06:27:53;16.10;99.90
14471;DHT22;7321;50.802;4.336;2023-08-08T06:30:19;16.10;99.90
14471;DHT22;7321;50.802;4.336;2023-08-08T06:32:45;16.30;99.90
14471;DHT22;7321;50.802;4.336;2023-08-08T06:35:11;16.60;99.90
14471;DHT22;7321;50.802;4.336;2023-08-08T06:37:37;16.60;99.90
14471;DHT22;7321;50.802;4.336;2023-08-08T06:40:03;16.80;99.90
14471;DHT22;7321;50.802;4.336;2023-08-08T06:42:30;16.60;99.90
14471;DHT22;7321;50.802;4.336;2023-08-08T06:44:55;16.60;99.90
14471;DHT22;7321;50.802;4.336;2023-08-08T06:47:22;16.50;99.90
14471;DHT22;7321;50.802;4.336;2023-08-08T06:49:47;16.60;99.90
14471;DHT22;7321;50.802;4.336;2023-08-08T06:52:13;16.80;99.90
14471;DHT22;7321;50.802;4.336;2023-08-08T06:54:39;16.80;99.90
14471;DHT22;7321;50.802;4.336;2023-08-08T06:57:05;16.70;99.90
14471;DHT22;7321;50.802;4.336;2023-08-08T06:59:31;16.60;99.90
14471;DHT22;7321;50.802;4.336;2023-08-08T07:01:56;16.90;99.90
14471;DHT22;7321;50.802;4.336;2023-08-08T07:04:22;16.90;99.90
14471;DHT22;7321;50.802;4.336;2023-08-08T07:06:48;16.90;99.90
14471;DHT22;7321;50.802;4.336;2023-08-08T07:09:14;16.70;99.90
14471;DHT22;7321;50.802;4.336;2023-08-08T07:11:41;16.60;99.90
14471;DHT22;7321;50.802;4.336;2023-08-08T07:14:07;16.60;99.90
14471;DHT22;7321;50.802;4.336;2023-08-08T07:16:33;16.70;99.90
14471;DHT22;7321;50.802;4.336;2023-08-08T07:18:59;16.60;99.90
14471;DHT22;7321;50.802;4.336;2023-08-08T07:21:25;16.30;99.90
14471;DHT22;7321;50.802;4.336;2023-08-08T07:23:52;16.30;99.90
14471;DHT22;7321;50.802;4.336;2023-08-08T07:26:17;16.40;99.90
14471;DHT22;7321;50.802;4.336;2023-08-08T07:28:43;16.50;99.90
14471;DHT22;7321;50.802;4.336;2023-08-08T07:31:09;16.50;99.90
14471;DHT22;7321;50.802;4.336;2023-08-08T07:33:35;16.60;99.90
14471;DHT22;7321;50.802;4.336;2023-08-08T07:36:01;16.80;99.90
14471;DHT22;7321;50.802;4.336;2023-08-08T07:38:27;16.70;99.90
14471;DHT22;7321;50.802;4.336;2023-08-08T07:40:53;16.90;99.90
14471;DHT22;7321;50.802;4.336;2023-08-08T07:43:19;17.00;99.90
14471;DHT22;7321;50.802;4.336;2023-08-08T07:45:46;16.90;99.90
14471;DHT22;7321;50.802;4.336;2023-08-08T07:48:12;16.90;99.90
14471;DHT22;7321;50.802;4.336;2023-08-08T07:50:38;17.10;99.90
14471;DHT22;7321;50.802;4.336;2023-08-08T07:53:03;17.00;99.90
14471;DHT22;7321;50.802;4.336;2023-08-08T07:55:29;17.20;99.90
14471;DHT22;7321;50.802;4.336;2023-08-08T07:57:55;17.20;99.90
14471;DHT22;7321;50.802;4.336;2023-08-08T08:00:21;17.30;99.90
14471;DHT22;7321;50.802;4.336;2023-08-08T08:02:47;17.40;99.90
14471;DHT22;7321;50.802;4.336;2023-08-08T08:05:13;17.40;99.90
14471;DHT22;7321;50.802;4.336;2023-08-08T08:07:39;17.40;99.90
14471;DHT22;7321;50.802;4.336;2023-08-08T08:10:07;17.70;99.90
14471;DHT22;7321;50.802;4.336;2023-08-08T08:12:35;17.70;99.90
14471;DHT22;7321;50.802;4.336;2023-08-08T08:15:02;17.60;99.90
14471;DHT22;7321;50.802;4.336;2023-08-08T08:17:28;17.60;99.90
14471;DHT22;7321;50.802;4.336;2023-08-08T08:19:54;17.40;99.90
14471;DHT22;7321;50.802;4.336;2023-08-08T08:22:20;17.60;99.90
14471;DHT22;7321;50.802;4.336;2023-08-08T08:24:46;17.50;99.90
14471;DHT22;7321;50.802;4.336;2023-08-08T08:27:12;17.70;99.90
14471;DHT22;7321;50.802;4.336;2023-08-08T08:29:39;17.90;99.90
14471;DHT22;7321;50.802;4.336;2023-08-08T08:32:05;18.00;99.90
14471;DHT22;7321;50.802;4.336;2023-08-08T08:34:31;17.80;99.90
14471;DHT22;7321;50.802;4.336;2023-08-08T08:37:00;17.90;99.90
14471;DHT22;7321;50.802;4.336;2023-08-08T08:39:25;18.00;99.90
14471;DHT22;7321;50.802;4.336;2023-08-08T08:41:56;18.00;99.90
14471;DHT22;7321;50.802;4.336;2023-08-08T08:44:25;18.00;99.90
14471;DHT22;7321;50.802;4.336;2023-08-08T08:46:52;18.30;99.90
14471;DHT22;7321;50.802;4.336;2023-08-08T08:49:21;18.30;99.90
14471;DHT22;7321;50.802;4.336;2023-08-08T08:51:47;18.20;99.90
14471;DHT22;7321;50.802;4.336;2023-08-08T08:54:13;18.60;99.90
14471;DHT22;7321;50.802;4.336;2023-08-08T08:56:41;18.50;99.90
14471;DHT22;7321;50.802;4.336;2023-08-08T08:59:07;18.90;99.90
14471;DHT22;7321;50.802;4.336;2023-08-08T09:01:33;19.00;99.90
14471;DHT22;7321;50.802;4.336;2023-08-08T09:04:00;19.20;99.90
14471;DHT22;7321;50.802;4.336;2023-08-08T09:06:28;19.10;99.90
14471;DHT22;7321;50.802;4.336;2023-08-08T09:08:54;19.30;99.90
14471;DHT22;7321;50.802;4.336;2023-08-08T09:11:20;19.30;99.90
14471;DHT22;7321;50.802;4.336;2023-08-08T09:13:46;19.40;99.90
14471;DHT22;7321;50.802;4.336;2023-08-08T09:16:13;19.30;99.90
14471;DHT22;7321;50.802;4.336;2023-08-08T09:18:40;19.50;99.90
14471;DHT22;7321;50.802;4.336;2023-08-08T09:21:08;19.50;99.90
14471;DHT22;7321;50.802;4.336;2023-08-08T09:23:34;19.10;99.90
14471;DHT22;7321;50.802;4.336;2023-08-08T09:25:59;19.40;99.90
14471;DHT22;7321;50.802;4.336;2023-08-08T09:28:25;19.30;99.90
14471;DHT22;7321;50.802;4.336;2023-08-08T09:30:51;19.60;99.90
14471;DHT22;7321;50.802;4.336;2023-08-08T09:33:19;19.70;99.90
14471;DHT22;7321;50.802;4.336;2023-08-08T09:35:45;19.70;99.90
14471;DHT22;7321;50.802;4.336;2023-08-08T09:38:11;19.80;99.90
14471;DHT22;7321;50.802;4.336;2023-08-08T09:40:36;20.20;99.90
14471;DHT22;7321;50.802;4.336;2023-08-08T09:43:03;20.30;99.90
14471;DHT22;7321;50.802;4.336;2023-08-08T09:45:38;20.30;99.90
14471;DHT22;7321;50.802;4.336;2023-08-08T09:48:05;20.10;99.90
14471;DHT22;7321;50.802;4.336;2023-08-08T09:50:39;20.30;99.90
14471;DHT22;7321;50.802;4.336;2023-08-08T09:53:31;20.50;99.90
14471;DHT22;7321;50.802;4.336;2023-08-08T09:56:09;20.90;99.90
14471;DHT22;7321;50.802;4.336;2023-08-08T09:58:46;20.40;99.90
14471;DHT22;7321;50.802;4.336;2023-08-08T10:01:13;20.10;99.90
14471;DHT22;7321;50.802;4.336;2023-08-08T10:03:41;20.30;99.90
14471;DHT22;7321;50.802;4.336;2023-08-08T10:06:08;20.10;99.90
14471;DHT22;7321;50.802;4.336;2023-08-08T10:08:35;19.70;99.90
14471;DHT22;7321;50.802;4.336;2023-08-08T10:11:01;19.90;99.90
14471;DHT22;7321;50.802;4.336;2023-08-08T10:13:28;20.00;99.90
14471;DHT22;7321;50.802;4.336;2023-08-08T10:15:54;20.00;99.90
14471;DHT22;7321;50.802;4.336;2023-08-08T10:18:24;19.90;99.90
14471;DHT22;7321;50.802;4.336;2023-08-08T10:20:51;19.60;99.90
14471;DHT22;7321;50.802;4.336;2023-08-08T10:23:19;19.40;99.90
14471;DHT22;7321;50.802;4.336;2023-08-08T10:25:47;19.20;99.90
14471;DHT22;7321;50.802;4.336;2023-08-08T10:28:16;19.20;99.90
14471;DHT22;7321;50.802;4.336;2023-08-08T10:33:27;19.10;99.90
14471;DHT22;7321;50.802;4.336;2023-08-08T10:35:59;19.10;99.90
14471;DHT22;7321;50.802;4.336;2023-08-08T10:38:25;18.90;99.90
14471;DHT22;7321;50.802;4.336;2023-08-08T10:40:59;18.90;99.90
14471;DHT22;7321;50.802;4.336;2023-08-08T10:43:27;18.90;99.90
14471;DHT22;7321;50.802;4.336;2023-08-08T10:45:57;18.90;99.90
14471;DHT22;7321;50.802;4.336;2023-08-08T10:48:33;18.90;99.90
14471;DHT22;7321;50.802;4.336;2023-08-08T10:51:06;18.90;99.90
14471;DHT22;7321;50.802;4.336;2023-08-08T10:53:32;19.00;99.90
14471;DHT22;7321;50.802;4.336;2023-08-08T10:56:00;19.00;99.90
14471;DHT22;7321;50.802;4.336;2023-08-08T10:58:40;19.20;99.90
14471;DHT22;7321;50.802;4.336;2023-08-08T11:01:07;19.40;99.90
14471;DHT22;7321;50.802;4.336;2023-08-08T11:03:39;19.40;99.90
14471;DHT22;7321;50.802;4.336;2023-08-08T11:06:09;19.50;99.90
14471;DHT22;7321;50.802;4.336;2023-08-08T11:08:35;19.60;99.90
14471;DHT22;7321;50.802;4.336;2023-08-08T11:11:02;19.80;99.90
14471;DHT22;7321;50.802;4.336;2023-08-08T11:13:29;20.20;99.90
14471;DHT22;7321;50.802;4.336;2023-08-08T11:15:55;20.20;99.90
14471;DHT22;7321;50.802;4.336;2023-08-08T11:18:21;20.30;99.90
14471;DHT22;7321;50.802;4.336;2023-08-08T11:20:48;20.50;99.90
14471;DHT22;7321;50.802;4.336;2023-08-08T11:23:15;20.90;99.90
14471;DHT22;7321;50.802;4.336;2023-08-08T11:25:47;21.20;99.90
14471;DHT22;7321;50.802;4.336;2023-08-08T11:28:23;20.80;99.90
14471;DHT22;7321;50.802;4.336;2023-08-08T11:30:52;20.50;99.90
14471;DHT22;7321;50.802;4.336;2023-08-08T11:33:21;20.50;99.90
14471;DHT22;7321;50.802;4.336;2023-08-08T11:35:53;20.60;99.90
14471;DHT22;7321;50.802;4.336;2023-08-08T11:38:31;20.40;99.90
14471;DHT22;7321;50.802;4.336;2023-08-08T11:41:01;20.10;99.90
14471;DHT22;7321;50.802;4.336;2023-08-08T11:43:44;20.30;99.90
14471;DHT22;7321;50.802;4.336;2023-08-08T11:46:28;20.30;99.90
14471;DHT22;7321;50.802;4.336;2023-08-08T11:49:17;20.10;99.90
14471;DHT22;7321;50.802;4.336;2023-08-08T11:51:54;20.20;99.90
14471;DHT22;7321;50.802;4.336;2023-08-08T11:54:50;20.20;99.90
14471;DHT22;7321;50.802;4.336;2023-08-08T11:57:45;20.40;99.90
14471;DHT22;7321;50.802;4.336;2023-08-08T12:01:13;20.40;99.90
14471;DHT22;7321;50.802;4.336;2023-08-08T12:03:38;20.70;99.90
14471;DHT22;7321;50.802;4.336;2023-08-08T12:06:17;20.80;99.90
14471;DHT22;7321;50.802;4.336;2023-08-08T12:08:47;20.70;99.90
14471;DHT22;7321;50.802;4.336;2023-08-08T12:11:15;20.60;99.90
14471;DHT22;7321;50.802;4.336;2023-08-08T12:13:42;20.50;99.90
14471;DHT22;7321;50.802;4.336;2023-08-08T12:16:13;20.30;99.90
14471;DHT22;7321;50.802;4.336;2023-08-08T12:18:42;20.40;99.90
14471;DHT22;7321;50.802;4.336;2023-08-08T12:21:18;20.70;99.90
14471;DHT22;7321;50.802;4.336;2023-08-08T12:23:47;21.20;99.90
14471;DHT22;7321;50.802;4.336;2023-08-08T12:26:17;21.30;99.90
14471;DHT22;7321;50.802;4.336;2023-08-08T12:28:52;21.20;99.90
14471;DHT22;7321;50.802;4.336;2023-08-08T12:31:22;21.30;99.90
14471;DHT22;7321;50.802;4.336;2023-08-08T12:33:50;21.10;99.90
14471;DHT22;7321;50.802;4.336;2023-08-08T12:36:19;21.00;99.90
14471;DHT22;7321;50.802;4.336;2023-08-08T12:39:27;20.70;99.90
14471;DHT22;7321;50.802;4.336;2023-08-08T12:42:05;20.80;99.90
14471;DHT22;7321;50.802;4.336;2023-08-08T12:44:34;20.80;99.90
14471;DHT22;7321;50.802;4.336;2023-08-08T12:47:06;21.00;99.90
14471;DHT22;7321;50.802;4.336;2023-08-08T12:49:53;21.30;99.90
14471;DHT22;7321;50.802;4.336;2023-08-08T12:52:24;21.10;99.90
14471;DHT22;7321;50.802;4.336;2023-08-08T12:54:53;20.80;99.90
14471;DHT22;7321;50.802;4.336;2023-08-08T12:57:22;20.80;99.90
14471;DHT22;7321;50.802;4.336;2023-08-08T12:59:48;21.30;99.90
14471;DHT22;7321;50.802;4.336;2023-08-08T13:02:14;21.30;99.90
14471;DHT22;7321;50.802;4.336;2023-08-08T13:04:40;21.30;99.90
14471;DHT22;7321;50.802;4.336;2023-08-08T13:07:09;21.20;99.90
14471;DHT22;7321;50.802;4.336;2023-08-08T13:09:35;21.50;99.90
14471;DHT22;7321;50.802;4.336;2023-08-08T13:12:01;21.50;99.90
14471;DHT22;7321;50.802;4.336;2023-08-08T13:14:30;21.80;99.90
14471;DHT22;7321;50.802;4.336;2023-08-08T13:16:55;21.20;99.90
14471;DHT22;7321;50.802;4.336;2023-08-08T13:19:24;21.20;99.90
14471;DHT22;7321;50.802;4.336;2023-08-08T13:21:56;20.90;99.90
14471;DHT22;7321;50.802;4.336;2023-08-08T13:27:05;20.90;99.90
14471;DHT22;7321;50.802;4.336;2023-08-08T13:29:49;20.70;99.90
14471;DHT22;7321;50.802;4.336;2023-08-08T13:32:21;20.70;99.90
14471;DHT22;7321;50.802;4.336;2023-08-08T13:34:47;20.70;99.90
14471;DHT22;7321;50.802;4.336;2023-08-08T13:37:12;20.90;99.90
14471;DHT22;7321;50.802;4.336;2023-08-08T13:39:38;20.90;99.90
14471;DHT22;7321;50.802;4.336;2023-08-08T13:42:04;20.70;99.90
14471;DHT22;7321;50.802;4.336;2023-08-08T13:44:30;20.80;99.90
14471;DHT22;7321;50.802;4.336;2023-08-08T13:46:56;20.90;99.90
14471;DHT22;7321;50.802;4.336;2023-08-08T13:49:23;20.70;99.90
14471;DHT22;7321;50.802;4.336;2023-08-08T13:51:55;20.90;99.90
14471;DHT22;7321;50.802;4.336;2023-08-08T13:54:21;20.80;99.90
14471;DHT22;7321;50.802;4.336;2023-08-08T13:56:46;20.90;99.90
14471;DHT22;7321;50.802;4.336;2023-08-08T13:59:12;20.80;99.90
14471;DHT22;7321;50.802;4.336;2023-08-08T14:01:38;21.10;99.90
14471;DHT22;7321;50.802;4.336;2023-08-08T14:04:04;21.20;99.90
14471;DHT22;7321;50.802;4.336;2023-08-08T14:06:30;21.30;99.90
14471;DHT22;7321;50.802;4.336;2023-08-08T14:09:02;21.40;99.90
14471;DHT22;7321;50.802;4.336;2023-08-08T14:11:29;21.40;99.90
14471;DHT22;7321;50.802;4.336;2023-08-08T14:13:55;21.10;99.90
14471;DHT22;7321;50.802;4.336;2023-08-08T14:16:21;21.00;99.90
14471;DHT22;7321;50.802;4.336;2023-08-08T14:18:50;20.80;99.90
14471;DHT22;7321;50.802;4.336;2023-08-08T14:21:16;20.40;99.90
14471;DHT22;7321;50.802;4.336;2023-08-08T14:23:42;20.40;99.90
14471;DHT22;7321;50.802;4.336;2023-08-08T14:26:09;20.40;99.90
14471;DHT22;7321;50.802;4.336;2023-08-08T14:28:35;20.40;99.90
14471;DHT22;7321;50.802;4.336;2023-08-08T14:31:01;20.40;99.90
14471;DHT22;7321;50.802;4.336;2023-08-08T14:33:27;20.50;99.90
14471;DHT22;7321;50.802;4.336;2023-08-08T14:35:54;20.60;99.90
14471;DHT22;7321;50.802;4.336;2023-08-08T14:38:24;20.30;99.90
14471;DHT22;7321;50.802;4.336;2023-08-08T14:40:50;20.20;99.90
14471;DHT22;7321;50.802;4.336;2023-08-08T14:43:16;20.20;99.90
14471;DHT22;7321;50.802;4.336;2023-08-08T14:45:42;20.10;99.90
14471;DHT22;7321;50.802;4.336;2023-08-08T14:48:08;20.10;99.90
14471;DHT22;7321;50.802;4.336;2023-08-08T14:50:34;20.10;99.90
14471;DHT22;7321;50.802;4.336;2023-08-08T14:52:59;20.10;99.90
14471;DHT22;7321;50.802;4.336;2023-08-08T14:55:25;20.00;99.90
14471;DHT22;7321;50.802;4.336;2023-08-08T14:57:51;20.00;99.90
14471;DHT22;7321;50.802;4.336;2023-08-08T15:00:17;20.20;99.90
14471;DHT22;7321;50.802;4.336;2023-08-08T15:02:43;20.40;99.90
14471;DHT22;7321;50.802;4.336;2023-08-08T15:05:09;20.10;99.90
14471;DHT22;7321;50.802;4.336;2023-08-08T15:07:34;20.20;99.90
14471;DHT22;7321;50.802;4.336;2023-08-08T15:10:00;20.40;99.90
14471;DHT22;7321;50.802;4.336;2023-08-08T15:12:26;20.50;99.90
14471;DHT22;7321;50.802;4.336;2023-08-08T15:14:52;20.50;99.90
14471;DHT22;7321;50.802;4.336;2023-08-08T15:17:18;20.60;99.90
14471;DHT22;7321;50.802;4.336;2023-08-08T15:19:44;20.60;99.90
14471;DHT22;7321;50.802;4.336;2023-08-08T15:22:09;20.40;99.90
14471;DHT22;7321;50.802;4.336;2023-08-08T15:24:35;20.10;99.90
14471;DHT22;7321;50.802;4.336;2023-08-08T15:27:03;20.20;99.90
14471;DHT22;7321;50.802;4.336;2023-08-08T15:29:29;20.10;99.90
14471;DHT22;7321;50.802;4.336;2023-08-08T15:31:55;20.20;99.90
14471;DHT22;7321;50.802;4.336;2023-08-08T15:34:21;20.30;99.90
14471;DHT22;7321;50.802;4.336;2023-08-08T15:36:47;20.30;99.90
14471;DHT22;7321;50.802;4.336;2023-08-08T15:39:14;20.10;99.90
14471;DHT22;7321;50.802;4.336;2023-08-08T15:41:41;20.10;99.90
14471;DHT22;7321;50.802;4.336;2023-08-08T15:44:07;20.20;99.90
14471;DHT22;7321;50.802;4.336;2023-08-08T15:46:32;20.20;99.90
14471;DHT22;7321;50.802;4.336;2023-08-08T15:48:58;20.30;99.90
14471;DHT22;7321;50.802;4.336;2023-08-08T15:51:24;20.20;99.90
14471;DHT22;7321;50.802;4.336;2023-08-08T15:53:50;20.20;99.90
14471;DHT22;7321;50.802;4.336;2023-08-08T15:56:16;20.30;99.90